GIA72 YPPH-WADD
Flight info
| Callsign | GIA72 |
|---|---|
| Flight time | N/A |
| Altitude | 37000 |
| Route | PH Y15 ESDEG/N0481F380 Q587 METUM R592 BLI |
| Aircraft | B77W/H-SDE1E2E3FGHIJ2J3J4J5M1RWXY/LB1D1 |
Departure
| Time | 2026-05-05 01:05 |
|---|---|
| Airport | Perth International Airport (YPPH) |
Arrival
| Time | N/A |
|---|---|
| Airport | Denpasar I Gusti Ngurah Rai International Airport (WADD) |
| Time | Latitude | Longitude | Altitude | Speed | Heading |
|---|---|---|---|---|---|
| 2026-05-05 00:21 | -31.94007 | 115.97375 | 79 ft | 0 kts | 162° |
| 2026-05-05 00:52 | -31.93987 | 115.97369 | 81 ft | 4 kts | 162° |
| 2026-05-05 00:53 | -31.93960 | 115.97360 | 80 ft | 3 kts | 175° |
| 2026-05-05 00:53 | -31.93942 | 115.97364 | 80 ft | 2 kts | 211° |
| 2026-05-05 00:53 | -31.93926 | 115.97382 | 80 ft | 3 kts | 237° |
| 2026-05-05 00:53 | -31.93920 | 115.97396 | 80 ft | 0 kts | 265° |
| 2026-05-05 00:54 | -31.93920 | 115.97406 | 80 ft | 0 kts | 273° |
| 2026-05-05 00:58 | -31.93920 | 115.97400 | 80 ft | 2 kts | 273° |
| 2026-05-05 00:58 | -31.93919 | 115.97349 | 79 ft | 9 kts | 265° |
| 2026-05-05 00:58 | -31.93943 | 115.97263 | 78 ft | 12 kts | 244° |
| 2026-05-05 00:58 | -31.93954 | 115.97154 | 76 ft | 14 kts | 279° |
| 2026-05-05 00:59 | -31.93930 | 115.97031 | 73 ft | 15 kts | 283° |
| 2026-05-05 00:59 | -31.93913 | 115.96946 | 72 ft | 7 kts | 282° |
| 2026-05-05 00:59 | -31.93939 | 115.96887 | 73 ft | 11 kts | 206° |
| 2026-05-05 00:59 | -31.94036 | 115.96856 | 74 ft | 16 kts | 194° |
| 2026-05-05 01:00 | -31.94161 | 115.96819 | 74 ft | 20 kts | 194° |
| 2026-05-05 01:00 | -31.94302 | 115.96777 | 76 ft | 19 kts | 194° |
| 2026-05-05 01:00 | -31.94436 | 115.96738 | 77 ft | 20 kts | 194° |
| 2026-05-05 01:00 | -31.94576 | 115.96698 | 78 ft | 21 kts | 193° |
| 2026-05-05 01:01 | -31.94726 | 115.96657 | 78 ft | 22 kts | 194° |
| 2026-05-05 01:01 | -31.94883 | 115.96609 | 81 ft | 23 kts | 194° |
| 2026-05-05 01:01 | -31.95054 | 115.96560 | 82 ft | 26 kts | 193° |
| 2026-05-05 01:01 | -31.95235 | 115.96507 | 84 ft | 26 kts | 194° |
| 2026-05-05 01:02 | -31.95415 | 115.96454 | 84 ft | 25 kts | 193° |
| 2026-05-05 01:02 | -31.95587 | 115.96403 | 84 ft | 25 kts | 194° |
| 2026-05-05 01:02 | -31.95742 | 115.96358 | 84 ft | 16 kts | 194° |
| 2026-05-05 01:02 | -31.95835 | 115.96331 | 84 ft | 10 kts | 194° |
| 2026-05-05 01:03 | -31.95875 | 115.96318 | 84 ft | 4 kts | 201° |
| 2026-05-05 01:03 | -31.95902 | 115.96296 | 85 ft | 6 kts | 230° |
| 2026-05-05 01:03 | -31.95912 | 115.96217 | 85 ft | 12 kts | 280° |
| 2026-05-05 01:03 | -31.95884 | 115.96097 | 86 ft | 17 kts | 286° |
| 2026-05-05 01:04 | -31.95855 | 115.96015 | 87 ft | 9 kts | 311° |
| 2026-05-05 01:04 | -31.95611 | 115.96047 | 85 ft | 56 kts | 15° |
| 2026-05-05 01:04 | -31.94967 | 115.96233 | 79 ft | 131 kts | 14° |
| 2026-05-05 01:05 | -31.93970 | 115.96542 | 407 ft | 159 kts | 17° |
| 2026-05-05 01:05 | -31.92861 | 115.96847 | 1179 ft | 171 kts | 6° |
| 2026-05-05 01:05 | -31.91644 | 115.96635 | 1957 ft | 187 kts | 352° |
| 2026-05-05 01:05 | -31.90326 | 115.96334 | 2494 ft | 202 kts | 353° |
| 2026-05-05 01:06 | -31.88929 | 115.95840 | 2976 ft | 222 kts | 338° |
| 2026-05-05 01:06 | -31.87407 | 115.95316 | 3557 ft | 236 kts | 353° |
| 2026-05-05 01:06 | -31.85737 | 115.95128 | 4135 ft | 252 kts | 357° |
| 2026-05-05 01:06 | -31.83961 | 115.94985 | 4914 ft | 259 kts | 357° |
| 2026-05-05 01:07 | -31.82136 | 115.94831 | 5722 ft | 266 kts | 357° |
| 2026-05-05 01:07 | -31.80307 | 115.94672 | 6515 ft | 271 kts | 357° |
| 2026-05-05 01:07 | -31.78409 | 115.94505 | 7305 ft | 276 kts | 357° |
| 2026-05-05 01:07 | -31.76467 | 115.94334 | 8086 ft | 282 kts | 357° |
| 2026-05-05 01:08 | -31.74482 | 115.94160 | 8844 ft | 287 kts | 357° |
| 2026-05-05 01:08 | -31.72339 | 115.93972 | 9627 ft | 293 kts | 357° |
| 2026-05-05 01:08 | -31.70156 | 115.93780 | 10369 ft | 300 kts | 357° |
| 2026-05-05 01:08 | -31.67716 | 115.93567 | 10865 ft | 320 kts | 357° |
| 2026-05-05 01:09 | -31.65087 | 115.93337 | 11397 ft | 339 kts | 357° |
| 2026-05-05 01:09 | -31.62232 | 115.93088 | 11978 ft | 358 kts | 357° |
| 2026-05-05 01:09 | -31.59178 | 115.92821 | 12592 ft | 377 kts | 357° |
| 2026-05-05 01:09 | -31.55918 | 115.92537 | 13216 ft | 395 kts | 357° |
| 2026-05-05 01:10 | -31.52556 | 115.92243 | 14035 ft | 408 kts | 357° |
| 2026-05-05 01:10 | -31.49076 | 115.91939 | 15162 ft | 412 kts | 357° |
| 2026-05-05 01:10 | -31.45569 | 115.91633 | 16319 ft | 416 kts | 356° |
| 2026-05-05 01:10 | -31.41934 | 115.91316 | 17429 ft | 421 kts | 356° |
| 2026-05-05 01:11 | -31.38297 | 115.90999 | 18500 ft | 427 kts | 356° |
| 2026-05-05 01:11 | -31.34590 | 115.90675 | 19599 ft | 431 kts | 356° |
| 2026-05-05 01:11 | -31.31017 | 115.90364 | 20647 ft | 435 kts | 356° |
| 2026-05-05 01:11 | -31.27985 | 115.90100 | 21453 ft | 439 kts | 355° |
| 2026-05-05 01:12 | -31.24926 | 115.89834 | 22232 ft | 443 kts | 355° |
| 2026-05-05 01:12 | -31.21842 | 115.89566 | 22978 ft | 448 kts | 355° |
| 2026-05-05 01:12 | -31.18732 | 115.89295 | 23721 ft | 452 kts | 355° |
| 2026-05-05 01:12 | -31.15559 | 115.89020 | 24413 ft | 457 kts | 355° |
| 2026-05-05 01:13 | -31.12369 | 115.88743 | 25066 ft | 463 kts | 355° |
| 2026-05-05 01:13 | -31.09144 | 115.88464 | 25704 ft | 468 kts | 355° |
| 2026-05-05 01:13 | -31.05894 | 115.88182 | 26367 ft | 472 kts | 355° |
| 2026-05-05 01:13 | -31.02567 | 115.87894 | 27019 ft | 477 kts | 355° |
| 2026-05-05 01:14 | -30.99272 | 115.87609 | 27634 ft | 482 kts | 354° |
| 2026-05-05 01:14 | -30.95902 | 115.87318 | 28280 ft | 486 kts | 354° |
| 2026-05-05 01:14 | -30.92517 | 115.87025 | 28903 ft | 490 kts | 354° |
| 2026-05-05 01:14 | -30.89111 | 115.86731 | 29456 ft | 494 kts | 354° |
| 2026-05-05 01:15 | -30.85663 | 115.86433 | 30111 ft | 497 kts | 354° |
| 2026-05-05 01:15 | -30.82224 | 115.86165 | 30854 ft | 495 kts | 357° |
| 2026-05-05 01:15 | -30.78801 | 115.86306 | 31625 ft | 494 kts | 2° |
| 2026-05-05 01:15 | -30.75394 | 115.86644 | 32309 ft | 492 kts | 3° |
| 2026-05-05 01:16 | -30.71993 | 115.86997 | 32869 ft | 492 kts | 3° |
| 2026-05-05 01:16 | -30.68591 | 115.87351 | 33373 ft | 493 kts | 3° |
| 2026-05-05 01:16 | -30.65152 | 115.87708 | 33865 ft | 494 kts | 2° |
| 2026-05-05 01:16 | -30.61739 | 115.88061 | 34469 ft | 493 kts | 2° |
| 2026-05-05 01:17 | -30.58356 | 115.88410 | 35140 ft | 491 kts | 2° |
| 2026-05-05 01:17 | -30.54879 | 115.88769 | 35870 ft | 488 kts | 2° |
| 2026-05-05 01:17 | -30.51485 | 115.89119 | 36525 ft | 485 kts | 2° |
| 2026-05-05 01:17 | -30.48067 | 115.89470 | 37068 ft | 484 kts | 1° |
| 2026-05-05 01:18 | -30.44609 | 115.89825 | 37320 ft | 487 kts | 1° |
| 2026-05-05 01:18 | -30.41154 | 115.90178 | 37316 ft | 487 kts | 1° |
| 2026-05-05 01:18 | -30.34332 | 115.90877 | 37312 ft | 484 kts | 1° |
| 2026-05-05 01:19 | -30.27006 | 115.91625 | 37306 ft | 486 kts | 2° |
| 2026-05-05 01:19 | -30.19731 | 115.92368 | 37305 ft | 484 kts | 2° |
| 2026-05-05 01:20 | -30.12301 | 115.93127 | 37312 ft | 484 kts | 2° |
| 2026-05-05 01:20 | -30.04813 | 115.93890 | 37309 ft | 484 kts | 2° |
| 2026-05-05 01:21 | -29.97490 | 115.94634 | 37305 ft | 484 kts | 2° |
| 2026-05-05 01:21 | -29.90070 | 115.95387 | 37305 ft | 484 kts | 2° |
| 2026-05-05 01:22 | -29.83162 | 115.96088 | 37298 ft | 485 kts | 2° |
| 2026-05-05 01:22 | -29.75600 | 115.96854 | 37301 ft | 484 kts | 2° |
| 2026-05-05 01:23 | -29.68204 | 115.97602 | 37300 ft | 485 kts | 2° |
| 2026-05-05 01:23 | -29.61332 | 115.98296 | 37299 ft | 485 kts | 2° |
| 2026-05-05 01:24 | -29.54040 | 115.99031 | 37301 ft | 485 kts | 2° |
| 2026-05-05 01:24 | -29.46555 | 115.99785 | 37298 ft | 485 kts | 2° |
| 2026-05-05 01:25 | -29.39385 | 116.00505 | 37296 ft | 485 kts | 2° |
| 2026-05-05 01:25 | -29.32150 | 116.01232 | 37296 ft | 485 kts | 2° |
| 2026-05-05 01:26 | -29.25355 | 116.01913 | 37297 ft | 485 kts | 2° |
| 2026-05-05 01:26 | -29.17632 | 116.02158 | 37298 ft | 482 kts | 354° |
| 2026-05-05 01:27 | -29.10131 | 116.01665 | 37288 ft | 482 kts | 354° |
| 2026-05-05 01:27 | -29.03291 | 116.01211 | 37291 ft | 482 kts | 354° |
| 2026-05-05 01:28 | -28.95658 | 116.00709 | 37290 ft | 481 kts | 354° |
| 2026-05-05 01:28 | -28.88076 | 116.00212 | 37291 ft | 481 kts | 354° |
| 2026-05-05 01:29 | -28.80406 | 115.99710 | 37287 ft | 482 kts | 354° |
| 2026-05-05 01:29 | -28.72605 | 115.99201 | 37286 ft | 481 kts | 354° |
| 2026-05-05 01:30 | -28.64743 | 115.98690 | 37285 ft | 482 kts | 354° |
| 2026-05-05 01:30 | -28.57668 | 115.98230 | 37276 ft | 481 kts | 354° |
| 2026-05-05 01:31 | -28.49793 | 115.97719 | 37273 ft | 482 kts | 354° |
| 2026-05-05 01:31 | -28.42372 | 115.97237 | 37274 ft | 481 kts | 354° |
| 2026-05-05 01:32 | -28.35037 | 115.96763 | 37274 ft | 482 kts | 354° |
| 2026-05-05 01:32 | -28.27198 | 115.96256 | 37278 ft | 481 kts | 354° |
| 2026-05-05 01:33 | -28.19894 | 115.95785 | 37274 ft | 481 kts | 354° |
| 2026-05-05 01:33 | -28.12702 | 115.95321 | 37274 ft | 481 kts | 354° |
| 2026-05-05 01:34 | -28.05710 | 115.94871 | 37273 ft | 480 kts | 354° |
| 2026-05-05 01:34 | -27.99034 | 115.94442 | 37264 ft | 479 kts | 354° |
| 2026-05-05 01:35 | -27.92334 | 115.94012 | 37259 ft | 481 kts | 354° |
| 2026-05-05 01:35 | -27.85615 | 115.93581 | 37260 ft | 480 kts | 354° |
| 2026-05-05 01:36 | -27.78959 | 115.93154 | 37248 ft | 480 kts | 354° |
| 2026-05-05 01:36 | -27.72258 | 115.92726 | 37244 ft | 480 kts | 354° |
| 2026-05-05 01:37 | -27.65569 | 115.92298 | 37258 ft | 480 kts | 353° |
| 2026-05-05 01:37 | -27.58902 | 115.91873 | 37252 ft | 480 kts | 353° |
| 2026-05-05 01:38 | -27.51954 | 115.91431 | 37250 ft | 480 kts | 353° |
| 2026-05-05 01:38 | -27.45303 | 115.91007 | 37244 ft | 479 kts | 353° |
| 2026-05-05 01:39 | -27.38623 | 115.90582 | 37245 ft | 480 kts | 353° |
| 2026-05-05 01:39 | -27.31900 | 115.90156 | 37241 ft | 479 kts | 353° |
| 2026-05-05 01:40 | -27.25214 | 115.89732 | 37245 ft | 480 kts | 353° |
| 2026-05-05 01:40 | -27.18539 | 115.89309 | 37254 ft | 481 kts | 353° |
| 2026-05-05 01:41 | -27.11878 | 115.88888 | 37246 ft | 479 kts | 353° |
| 2026-05-05 01:41 | -27.05192 | 115.88465 | 37241 ft | 479 kts | 353° |
| 2026-05-05 01:42 | -26.98531 | 115.88045 | 37244 ft | 480 kts | 352° |
| 2026-05-05 01:42 | -26.91840 | 115.87623 | 37247 ft | 480 kts | 352° |
| 2026-05-05 01:43 | -26.84962 | 115.87190 | 37236 ft | 479 kts | 352° |
| 2026-05-05 01:43 | -26.78179 | 115.86763 | 37234 ft | 479 kts | 352° |
| 2026-05-05 01:44 | -26.71508 | 115.86344 | 37233 ft | 481 kts | 351° |
| 2026-05-05 01:44 | -26.64815 | 115.85925 | 37237 ft | 478 kts | 351° |
| 2026-05-05 01:45 | -26.58159 | 115.85507 | 37232 ft | 480 kts | 351° |
| 2026-05-05 01:45 | -26.51473 | 115.85089 | 37229 ft | 479 kts | 351° |
| 2026-05-05 01:46 | -26.44797 | 115.84671 | 37232 ft | 481 kts | 351° |
| 2026-05-05 01:46 | -26.38075 | 115.84251 | 37219 ft | 481 kts | 351° |
| 2026-05-05 01:47 | -26.31401 | 115.83836 | 37217 ft | 480 kts | 350° |
| 2026-05-05 01:47 | -26.24739 | 115.83421 | 37223 ft | 477 kts | 350° |
| 2026-05-05 01:48 | -26.18061 | 115.83005 | 37217 ft | 479 kts | 350° |
| 2026-05-05 01:48 | -26.11376 | 115.82590 | 37214 ft | 478 kts | 350° |
| 2026-05-05 01:49 | -26.04649 | 115.82172 | 37207 ft | 477 kts | 349° |
| 2026-05-05 01:49 | -25.97920 | 115.81754 | 37215 ft | 481 kts | 349° |
| 2026-05-05 01:50 | -25.91233 | 115.81341 | 37203 ft | 476 kts | 349° |
| 2026-05-05 01:50 | -25.84594 | 115.80930 | 37209 ft | 478 kts | 348° |
| 2026-05-05 01:51 | -25.79009 | 115.80584 | 37198 ft | 478 kts | 348° |
| 2026-05-05 01:51 | -25.71229 | 115.80106 | 37190 ft | 473 kts | 348° |
| 2026-05-05 01:52 | -25.65702 | 115.79764 | 37205 ft | 475 kts | 348° |
| 2026-05-05 01:52 | -25.57891 | 115.79280 | 37190 ft | 479 kts | 348° |
| 2026-05-05 01:53 | -25.51207 | 115.78871 | 37199 ft | 477 kts | 347° |
| 2026-05-05 01:53 | -25.44504 | 115.78458 | 37177 ft | 479 kts | 347° |
| 2026-05-05 01:54 | -25.37834 | 115.78049 | 37187 ft | 478 kts | 347° |
| 2026-05-05 01:54 | -25.31144 | 115.77640 | 37193 ft | 478 kts | 347° |
| 2026-05-05 01:55 | -25.24439 | 115.77228 | 37191 ft | 478 kts | 347° |
| 2026-05-05 01:55 | -25.17657 | 115.76814 | 37179 ft | 475 kts | 346° |
| 2026-05-05 01:56 | -25.11044 | 115.76410 | 37198 ft | 476 kts | 347° |
| 2026-05-05 01:56 | -25.04290 | 115.75997 | 37184 ft | 475 kts | 346° |
| 2026-05-05 01:57 | -24.97319 | 115.75571 | 37196 ft | 477 kts | 346° |
| 2026-05-05 01:57 | -24.90671 | 115.75166 | 37193 ft | 477 kts | 346° |